首页
METAR-TAF:

METAR-TAF

机场 :

Pangborn Memorial Airport

韦纳奇, 华盛顿, 美国

纬度: 47-23-56N, 经度: 120-12-25W, 海拔: 381米

当前天气观测

该预报发布于28分钟前的02:55 UTC
风速14节,风向西转西北
温度 16°C
湿度 39%
气压 1015 hPa
能見度: 16.1公里
天空无云

METAR: KEAT 010255Z AUTO 30014KT 10SM CLR 16/02 A2997 RMK AO2 SLP147 T01610022 53008 $

时间: 20:23 (03:23 UTC)

预报

该预报发布于4小时和3分钟前的23:20 UTC
预报有效从01日的 00点(UTC)到 01日的 24点(UTC)
风速13节,风向西转西北,有时为21节阵风
能見度: 10公里
天空无云
从 01日的 0400点(UTC)
风速10节,风向西北
能見度: 10公里
天空无云
从 01日的 1800点(UTC)
风速6节,风向西转西北
能見度: 10公里
少量云层高于7000英尺
散云层高于20000英尺

TAF: KEAT 312320Z 0100/0124 30013G21KT P6SM SKC FM010400 31010KT P6SM SKC FM011800 29006KT P6SM FEW070 SCT200

超过4000个机场的气象观测和天气预报(METAR&TAF报告)。

可查询的气象台以黄色和红色小点在地图上表示。

将鼠标移到小点上方,可查看气象台名称。

然后点击查看天气观测和预报。

如需切换地图:点击带黑十字的绿色按钮放大地图;点击带横线的绿色按钮缩小地图;或者点击绿色箭头查看邻近地区的地图。


METAR-TAF: